createdAt,value
2019-03-08T00:00:28.671Z,93.70
2019-03-08T00:02:56.127Z,93.80
2019-03-08T00:05:24.709Z,93.70
2019-03-08T00:07:52.148Z,93.90
2019-03-08T00:10:20.007Z,94.20
2019-03-08T00:12:47.395Z,94.60
2019-03-08T00:15:15.237Z,95.00
2019-03-08T00:17:43.033Z,95.20
2019-03-08T00:20:11.344Z,95.30
2019-03-08T00:22:39.344Z,95.50
2019-03-08T00:25:07.133Z,95.60
2019-03-08T00:27:34.888Z,95.50
2019-03-08T00:30:20.868Z,95.60
2019-03-08T00:32:48.696Z,95.40
2019-03-08T00:35:16.117Z,95.50
2019-03-08T00:37:44.198Z,95.50
2019-03-08T00:40:12.250Z,95.50
2019-03-08T00:42:40.107Z,95.60
2019-03-08T00:45:09.011Z,95.50
2019-03-08T00:47:37.902Z,95.60
2019-03-08T00:50:05.539Z,95.60
2019-03-08T00:52:34.065Z,95.70
2019-03-08T00:55:02.023Z,95.90
2019-03-08T00:57:30.546Z,96.00
2019-03-08T00:59:58.870Z,96.20
2019-03-08T01:02:27.007Z,96.30
2019-03-08T01:04:54.725Z,96.50
2019-03-08T01:07:22.594Z,96.70
2019-03-08T01:09:50.475Z,96.80
2019-03-08T01:12:17.926Z,97.00
2019-03-08T01:14:45.790Z,97.10
2019-03-08T01:17:14.256Z,97.10
2019-03-08T01:19:42.111Z,97.40
2019-03-08T01:22:09.751Z,97.40
2019-03-08T01:24:37.263Z,97.80
2019-03-08T01:27:06.105Z,98.20
2019-03-08T01:29:34.519Z,98.40
2019-03-08T01:32:05.560Z,98.50
2019-03-08T01:34:33.375Z,98.80
2019-03-08T01:37:01.247Z,98.90
2019-03-08T01:39:28.991Z,99.00
2019-03-08T01:41:57.066Z,99.20
2019-03-08T01:44:24.550Z,99.30
2019-03-08T01:46:52.743Z,99.60
2019-03-08T01:49:20.301Z,99.40
2019-03-08T01:51:48.702Z,99.30
2019-03-08T01:54:16.670Z,99.50
2019-03-08T01:56:44.508Z,99.70
2019-03-08T01:59:12.025Z,99.80
2019-03-08T02:01:40.003Z,99.70
2019-03-08T02:04:08.007Z,99.80
2019-03-08T02:06:35.773Z,99.90
2019-03-08T02:09:04.591Z,99.90
2019-03-08T02:11:32.946Z,99.90
2019-03-08T02:14:00.611Z,99.90
2019-03-08T02:16:28.667Z,99.90
2019-03-08T02:18:56.859Z,99.90
2019-03-08T02:21:25.307Z,99.90
2019-03-08T02:23:53.409Z,99.90
2019-03-08T02:26:20.880Z,99.90
2019-03-08T02:28:48.760Z,99.90
2019-03-08T02:31:16.558Z,99.90
2019-03-08T02:33:43.996Z,99.90
2019-03-08T02:36:12.442Z,99.90
2019-03-08T02:38:40.801Z,99.90
2019-03-08T02:41:08.392Z,99.90
2019-03-08T02:43:36.220Z,99.90
2019-03-08T02:46:04.925Z,99.90
2019-03-08T02:48:33.318Z,99.90
2019-03-08T02:51:01.223Z,99.90
2019-03-08T02:53:29.034Z,99.90
2019-03-08T02:55:56.807Z,99.90
2019-03-08T02:58:24.925Z,99.90
2019-03-08T03:00:52.475Z,99.90
2019-03-08T03:03:20.521Z,99.90
2019-03-08T03:05:48.696Z,99.90
2019-03-08T03:08:16.319Z,99.90
2019-03-08T03:10:44.101Z,99.90
2019-03-08T03:13:11.439Z,99.90
2019-03-08T03:15:40.456Z,99.90
2019-03-08T03:18:08.243Z,99.90
2019-03-08T03:20:35.953Z,99.90
2019-03-08T03:23:04.365Z,99.90
2019-03-08T03:25:32.058Z,99.90
2019-03-08T03:27:59.882Z,99.90
2019-03-08T03:30:27.348Z,99.90
2019-03-08T03:32:54.931Z,99.90
2019-03-08T03:35:22.695Z,99.90
2019-03-08T03:37:50.219Z,99.90
2019-03-08T03:40:18.197Z,99.90
2019-03-08T03:42:45.628Z,99.90
2019-03-08T03:45:13.273Z,99.90
2019-03-08T03:47:41.391Z,99.90
2019-03-08T03:50:09.344Z,99.90
2019-03-08T03:52:37.098Z,99.90
2019-03-08T03:55:05.308Z,99.90
2019-03-08T03:57:32.851Z,99.90
2019-03-08T04:00:00.725Z,99.90
2019-03-08T04:02:28.240Z,99.90
2019-03-08T04:04:56.077Z,99.90
2019-03-08T04:07:23.662Z,99.90
2019-03-08T04:09:51.445Z,99.90
2019-03-08T04:12:18.905Z,99.90
2019-03-08T04:14:46.569Z,99.90
2019-03-08T04:17:14.354Z,99.90
2019-03-08T04:19:42.011Z,99.90
2019-03-08T04:22:09.640Z,99.90
2019-03-08T04:24:37.745Z,99.90
2019-03-08T04:27:06.090Z,99.90
2019-03-08T04:29:33.519Z,99.90
2019-03-08T04:32:02.205Z,99.90
2019-03-08T04:34:29.867Z,99.90
2019-03-08T04:36:57.817Z,99.90
2019-03-08T04:39:25.748Z,99.90
2019-03-08T04:41:53.216Z,99.90
2019-03-08T04:44:20.951Z,99.90
2019-03-08T04:46:48.683Z,99.90
2019-03-08T04:49:16.109Z,99.90
2019-03-08T04:51:43.971Z,99.90
2019-03-08T04:54:11.269Z,99.90
2019-03-08T04:56:39.465Z,99.90
2019-03-08T04:59:07.013Z,99.90
2019-03-08T05:01:34.906Z,99.90
2019-03-08T05:04:02.747Z,99.90
2019-03-08T05:06:30.716Z,99.90
2019-03-08T05:08:58.068Z,99.90
2019-03-08T05:11:25.627Z,99.90
2019-03-08T05:13:53.486Z,99.90
2019-03-08T05:16:21.682Z,99.90
2019-03-08T05:18:49.550Z,99.90
2019-03-08T05:21:17.766Z,99.90
2019-03-08T05:23:45.358Z,99.90
2019-03-08T05:26:12.863Z,99.90
2019-03-08T05:28:41.053Z,99.90
2019-03-08T05:31:08.993Z,99.90
2019-03-08T05:33:37.300Z,99.90
2019-03-08T05:36:05.004Z,99.90
2019-03-08T05:38:33.042Z,99.90
2019-03-08T05:41:00.800Z,99.90
2019-03-08T05:43:29.092Z,99.90
2019-03-08T05:45:57.335Z,99.90
2019-03-08T05:48:26.450Z,99.90
2019-03-08T05:50:54.739Z,99.90
2019-03-08T05:53:23.119Z,99.90
2019-03-08T05:55:51.267Z,99.90
2019-03-08T05:58:19.441Z,99.90
2019-03-08T06:00:47.316Z,99.90
2019-03-08T06:03:15.910Z,99.90
2019-03-08T06:05:45.818Z,99.90
2019-03-08T06:08:13.980Z,99.90
2019-03-08T06:10:43.996Z,99.90
2019-03-08T06:13:11.577Z,99.90
2019-03-08T06:15:39.652Z,99.90
2019-03-08T06:18:07.377Z,99.90
2019-03-08T06:20:37.337Z,99.90
2019-03-08T06:23:05.455Z,99.90
2019-03-08T06:25:35.707Z,99.90
2019-03-08T06:28:03.880Z,99.90
2019-03-08T06:30:32.824Z,99.90
2019-03-08T06:33:00.719Z,99.90
2019-03-08T06:35:28.672Z,99.90
2019-03-08T06:37:57.288Z,99.90
2019-03-08T06:40:25.430Z,99.90
2019-03-08T06:42:53.632Z,99.90
2019-03-08T06:45:23.567Z,99.90
2019-03-08T06:47:51.201Z,99.90
2019-03-08T06:50:19.396Z,99.90
2019-03-08T06:52:46.955Z,99.90
2019-03-08T06:55:14.618Z,99.90
2019-03-08T06:57:43.166Z,99.90
2019-03-08T07:00:23.356Z,99.90
2019-03-08T07:02:51.520Z,99.90
2019-03-08T07:05:19.773Z,99.90
2019-03-08T07:07:48.162Z,99.90
2019-03-08T07:10:16.122Z,99.90
2019-03-08T07:12:44.135Z,99.90
2019-03-08T07:15:12.088Z,99.90
2019-03-08T07:17:40.786Z,99.90
2019-03-08T07:20:26.481Z,99.90
2019-03-08T07:23:11.249Z,99.90
2019-03-08T07:25:58.742Z,99.90
2019-03-08T07:28:48.831Z,99.90
2019-03-08T07:31:36.562Z,99.90
2019-03-08T07:34:20.337Z,99.90
2019-03-08T07:37:23.621Z,99.90
2019-03-08T07:40:11.642Z,99.90
2019-03-08T07:43:07.472Z,99.90
2019-03-08T07:45:52.740Z,99.90
2019-03-08T07:48:38.724Z,99.90
2019-03-08T07:51:25.065Z,99.90
2019-03-08T07:54:00.697Z,99.90
2019-03-08T07:56:51.780Z,99.90
2019-03-08T07:59:38.897Z,99.90
2019-03-08T08:02:20.838Z,99.90
2019-03-08T08:05:13.563Z,99.90
2019-03-08T08:07:47.559Z,99.90
2019-03-08T08:10:40.443Z,99.90
2019-03-08T08:13:24.837Z,99.90
2019-03-08T08:16:11.442Z,99.90
2019-03-08T08:18:56.308Z,99.90
2019-03-08T08:21:53.659Z,99.90
2019-03-08T08:24:28.836Z,99.90
2019-03-08T08:27:17.756Z,99.90
2019-03-08T08:30:20.872Z,99.90
2019-03-08T08:33:07.488Z,99.90
2019-03-08T08:35:55.851Z,99.90
2019-03-08T08:38:43.192Z,99.90
2019-03-08T08:41:39.299Z,99.90
2019-03-08T08:44:24.717Z,99.90
2019-03-08T08:46:59.085Z,99.40
2019-03-08T08:49:54.598Z,99.20
2019-03-08T08:52:44.548Z,98.80
2019-03-08T08:55:43.679Z,98.90
2019-03-08T08:58:24.919Z,99.30
2019-03-08T09:01:25.361Z,99.10
2019-03-08T09:04:26.251Z,98.50
2019-03-08T09:07:32.299Z,98.60
2019-03-08T09:10:05.859Z,98.70
2019-03-08T09:12:39.294Z,98.70
2019-03-08T09:15:15.708Z,98.60
2019-03-08T09:18:09.224Z,98.30
2019-03-08T09:20:50.849Z,98.40
2019-03-08T09:23:27.407Z,98.40
2019-03-08T09:26:13.295Z,98.60
2019-03-08T09:28:56.501Z,97.70
2019-03-08T09:31:30.855Z,97.90
2019-03-08T09:34:05.519Z,98.50
2019-03-08T09:37:04.873Z,98.50
2019-03-08T09:39:47.188Z,98.40
2019-03-08T09:42:40.630Z,98.30
2019-03-08T09:45:26.653Z,98.00
2019-03-08T09:48:22.969Z,98.10
2019-03-08T09:51:19.204Z,97.80
2019-03-08T09:53:52.487Z,96.80
2019-03-08T09:56:43.397Z,97.20
2019-03-08T09:59:21.501Z,97.10
2019-03-08T10:02:12.207Z,97.10
2019-03-08T10:05:08.776Z,97.00
2019-03-08T10:07:50.232Z,96.90
2019-03-08T10:10:37.940Z,96.90
2019-03-08T10:13:19.200Z,96.80
2019-03-08T10:15:57.138Z,97.00
2019-03-08T10:18:52.888Z,96.70
2019-03-08T10:21:41.584Z,96.60
2019-03-08T10:24:19.394Z,96.90
2019-03-08T10:27:05.112Z,97.10
2019-03-08T10:29:58.665Z,96.70
2019-03-08T10:32:43.029Z,96.20
2019-03-08T10:35:36.629Z,96.00
2019-03-08T10:38:29.866Z,96.10
2019-03-08T10:41:26.201Z,96.20
2019-03-08T10:44:15.456Z,95.60
2019-03-08T10:47:01.348Z,95.70
2019-03-08T10:50:06.594Z,95.60
2019-03-08T10:52:51.963Z,95.00
2019-03-08T10:55:25.267Z,95.40
2019-03-08T10:58:31.047Z,95.50
2019-03-08T11:01:04.863Z,95.30
2019-03-08T11:03:48.212Z,94.80
2019-03-08T11:06:41.305Z,95.00
2019-03-08T11:09:30.953Z,93.90
2019-03-08T11:12:19.505Z,93.90
2019-03-08T11:15:06.528Z,93.50
2019-03-08T11:18:12.553Z,93.40
2019-03-08T11:20:57.984Z,93.40
2019-03-08T11:23:45.275Z,93.60
2019-03-08T11:26:41.242Z,93.20
2019-03-08T11:29:34.855Z,92.90
2019-03-08T11:32:22.977Z,92.60
2019-03-08T11:35:16.297Z,92.20
2019-03-08T11:38:00.573Z,92.30
2019-03-08T11:40:47.853Z,92.50
2019-03-08T11:43:26.534Z,92.50
2019-03-08T11:46:05.717Z,91.00
2019-03-08T11:48:52.260Z,91.20
2019-03-08T11:51:38.663Z,91.80
2019-03-08T11:54:25.765Z,91.80
2019-03-08T11:57:02.819Z,92.50
2019-03-08T11:59:48.840Z,92.60
2019-03-08T12:02:45.069Z,92.20
2019-03-08T12:05:32.873Z,91.20
2019-03-08T12:08:16.697Z,90.90
2019-03-08T12:11:09.927Z,90.70
2019-03-08T12:13:55.170Z,90.70
2019-03-08T12:16:42.803Z,90.80
2019-03-08T12:19:25.779Z,90.90
2019-03-08T12:22:27.625Z,91.30
2019-03-08T12:25:26.807Z,91.30
2019-03-08T12:28:23.753Z,91.60
2019-03-08T12:30:59.915Z,91.40
2019-03-08T12:33:46.008Z,91.70
2019-03-08T12:36:39.983Z,90.70
2019-03-08T12:39:17.013Z,90.60
2019-03-08T12:41:51.075Z,90.40
2019-03-08T12:44:30.605Z,89.30
2019-03-08T12:47:16.291Z,89.80
2019-03-08T12:50:04.128Z,90.30
2019-03-08T12:52:45.570Z,90.00
2019-03-08T12:55:31.842Z,89.40
2019-03-08T12:58:19.530Z,89.80
2019-03-08T13:01:02.813Z,90.10
2019-03-08T13:03:51.418Z,90.40
2019-03-08T13:06:45.749Z,90.60
2019-03-08T13:09:36.002Z,90.80
2019-03-08T13:12:03.829Z,90.40
2019-03-08T13:14:31.864Z,90.00
2019-03-08T13:16:59.649Z,90.20
2019-03-08T13:19:27.366Z,90.00
2019-03-08T13:21:55.643Z,90.20
2019-03-08T13:24:23.609Z,90.30
2019-03-08T13:26:51.384Z,90.40
2019-03-08T13:29:19.516Z,90.00
2019-03-08T13:31:47.229Z,89.90
2019-03-08T13:34:14.981Z,90.10
2019-03-08T13:36:44.449Z,88.90
2019-03-08T13:39:12.482Z,88.70
2019-03-08T13:41:40.507Z,89.20
2019-03-08T13:44:08.010Z,89.40
2019-03-08T13:46:37.896Z,89.60
2019-03-08T13:49:05.780Z,89.20
2019-03-08T13:51:33.786Z,88.20
2019-03-08T13:54:01.470Z,89.20
2019-03-08T13:56:29.268Z,89.60
2019-03-08T13:58:57.749Z,89.40
2019-03-08T14:01:26.115Z,89.60
2019-03-08T14:03:54.059Z,89.50
2019-03-08T14:06:22.257Z,89.60
2019-03-08T14:08:49.963Z,89.80
2019-03-08T14:11:17.595Z,89.50
2019-03-08T14:13:45.359Z,89.30
2019-03-08T14:16:14.234Z,89.00
2019-03-08T14:18:42.216Z,88.90
2019-03-08T14:21:09.714Z,88.90
2019-03-08T14:23:37.657Z,88.40
2019-03-08T14:26:05.787Z,88.60
2019-03-08T14:28:33.518Z,88.80
2019-03-08T14:31:12.497Z,88.30
2019-03-08T14:33:40.475Z,87.40
2019-03-08T14:36:09.066Z,87.30
2019-03-08T14:38:37.281Z,87.50
2019-03-08T14:41:16.636Z,87.60
2019-03-08T14:44:02.405Z,87.80
2019-03-08T14:46:43.728Z,87.70
2019-03-08T14:49:11.433Z,87.80
2019-03-08T14:51:44.774Z,88.10
2019-03-08T14:54:14.503Z,88.00
2019-03-08T14:56:42.894Z,86.80
2019-03-08T14:59:11.322Z,86.40
2019-03-08T15:01:40.352Z,86.40
2019-03-08T15:04:09.588Z,86.20
2019-03-08T15:06:37.580Z,86.00
2019-03-08T15:09:10.810Z,86.00
2019-03-08T15:11:38.779Z,85.90
2019-03-08T15:14:06.346Z,86.50
2019-03-08T15:16:35.314Z,86.60
2019-03-08T15:19:04.901Z,86.20
2019-03-08T15:21:33.137Z,86.20
2019-03-08T15:24:02.588Z,86.60
2019-03-08T15:26:30.534Z,85.60
2019-03-08T15:28:58.657Z,85.60
2019-03-08T15:31:26.301Z,85.10
2019-03-08T15:33:54.654Z,85.30
2019-03-08T15:36:22.557Z,85.50
2019-03-08T15:38:58.589Z,85.50
2019-03-08T15:41:25.046Z,85.50
2019-03-08T15:43:52.918Z,85.80
2019-03-08T15:46:22.401Z,86.00
2019-03-08T15:48:53.253Z,86.10
2019-03-08T15:51:25.324Z,86.20
2019-03-08T15:53:50.668Z,86.20
2019-03-08T15:56:18.419Z,86.10
2019-03-08T15:58:46.482Z,85.90
2019-03-08T16:01:14.188Z,86.10
2019-03-08T16:03:42.420Z,86.10
2019-03-08T16:06:10.044Z,86.30
2019-03-08T16:08:39.803Z,86.30
2019-03-08T16:11:08.423Z,86.10
2019-03-08T16:13:35.987Z,86.30
2019-03-08T16:16:04.089Z,86.30
2019-03-08T16:18:31.745Z,86.40
2019-03-08T16:20:59.932Z,86.40
2019-03-08T16:23:27.387Z,86.40
2019-03-08T16:25:58.491Z,86.40
2019-03-08T16:28:26.160Z,86.40
2019-03-08T16:31:03.704Z,86.70
2019-03-08T16:33:40.397Z,86.90
2019-03-08T16:36:14.157Z,86.90
2019-03-08T16:38:54.708Z,86.80
2019-03-08T16:41:42.176Z,86.70
2019-03-08T16:44:32.751Z,86.70
2019-03-08T16:47:21.518Z,87.30
2019-03-08T16:50:15.099Z,86.70
2019-03-08T16:53:11.298Z,86.80
2019-03-08T16:55:57.233Z,86.80
2019-03-08T16:58:43.013Z,87.00
2019-03-08T17:01:38.041Z,87.10
2019-03-08T17:04:28.935Z,87.10
2019-03-08T17:07:12.467Z,87.10
2019-03-08T17:09:54.066Z,87.20
2019-03-08T17:12:48.166Z,86.90
2019-03-08T17:15:38.834Z,86.80
2019-03-08T17:18:26.355Z,86.90
2019-03-08T17:21:17.736Z,86.80
2019-03-08T17:23:53.510Z,86.90
2019-03-08T17:26:27.820Z,87.00
2019-03-08T17:29:24.295Z,87.20
2019-03-08T17:32:15.766Z,87.50
2019-03-08T17:34:57.862Z,88.80
2019-03-08T17:37:44.451Z,89.60
2019-03-08T17:40:20.232Z,90.00
2019-03-08T17:43:06.529Z,90.20
2019-03-08T17:45:46.150Z,90.40
2019-03-08T17:48:33.516Z,90.80
2019-03-08T17:51:20.919Z,90.90
2019-03-08T17:53:57.795Z,91.20
2019-03-08T17:56:34.231Z,91.40
2019-03-08T17:59:17.924Z,91.50
2019-03-08T18:02:04.953Z,91.60
2019-03-08T18:04:57.873Z,91.80
2019-03-08T18:07:43.027Z,92.40
2019-03-08T18:10:48.093Z,92.10
2019-03-08T18:13:30.045Z,92.20
2019-03-08T18:16:06.362Z,92.40
2019-03-08T18:18:56.627Z,92.80
2019-03-08T18:21:58.835Z,92.90
2019-03-08T18:24:39.173Z,93.10
2019-03-08T18:27:43.993Z,93.00
2019-03-08T18:30:30.521Z,93.20
2019-03-08T18:33:16.368Z,93.30
2019-03-08T18:36:22.158Z,93.50
2019-03-08T18:39:08.045Z,93.60
2019-03-08T18:41:54.662Z,93.60
2019-03-08T18:44:44.141Z,93.60
2019-03-08T18:47:37.549Z,93.70
2019-03-08T18:50:26.038Z,93.80
2019-03-08T18:53:25.271Z,93.90
2019-03-08T18:56:02.967Z,94.00
2019-03-08T18:59:02.769Z,94.10
2019-03-08T19:01:52.635Z,94.10
2019-03-08T19:04:33.895Z,94.10
2019-03-08T19:07:27.978Z,94.10
2019-03-08T19:10:06.967Z,94.20
2019-03-08T19:12:54.154Z,94.20
2019-03-08T19:15:47.808Z,94.30
2019-03-08T19:18:30.115Z,94.30
2019-03-08T19:21:19.914Z,94.30
2019-03-08T19:24:12.971Z,94.30
2019-03-08T19:27:09.602Z,94.30
2019-03-08T19:29:55.378Z,94.30
2019-03-08T19:32:41.720Z,94.30
2019-03-08T19:35:19.845Z,94.40
2019-03-08T19:38:07.502Z,94.30
2019-03-08T19:41:13.950Z,94.40
2019-03-08T19:44:16.957Z,94.30
2019-03-08T19:47:07.998Z,94.30
2019-03-08T19:50:11.081Z,94.30
2019-03-08T19:53:05.333Z,94.30
2019-03-08T19:55:46.955Z,94.40
2019-03-08T19:58:33.530Z,94.30
2019-03-08T20:01:30.034Z,94.30
2019-03-08T20:04:26.492Z,94.40
2019-03-08T20:07:09.122Z,94.40
2019-03-08T20:10:05.343Z,94.40
2019-03-08T20:12:39.089Z,94.40
2019-03-08T20:15:26.720Z,94.40
2019-03-08T20:18:16.684Z,94.40
2019-03-08T20:20:54.090Z,94.40
2019-03-08T20:23:29.743Z,94.40
2019-03-08T20:26:25.929Z,94.50
2019-03-08T20:29:16.014Z,94.50
2019-03-08T20:32:07.073Z,94.50
2019-03-08T20:34:45.549Z,94.60
2019-03-08T20:37:36.835Z,94.60
2019-03-08T20:40:24.499Z,94.70
2019-03-08T20:43:06.004Z,94.70
2019-03-08T20:45:59.420Z,94.70
2019-03-08T20:48:27.337Z,95.00
2019-03-08T20:50:54.764Z,94.70
2019-03-08T20:53:22.183Z,94.70
2019-03-08T20:55:49.998Z,94.80
2019-03-08T20:58:17.556Z,94.80
2019-03-08T21:00:45.318Z,94.80
2019-03-08T21:03:13.151Z,94.80
2019-03-08T21:05:41.576Z,94.70
2019-03-08T21:08:09.724Z,94.80
2019-03-08T21:10:38.318Z,94.70
2019-03-08T21:13:05.852Z,94.80
2019-03-08T21:15:34.353Z,94.70
2019-03-08T21:18:02.307Z,94.60
2019-03-08T21:20:29.968Z,94.60
2019-03-08T21:22:57.704Z,94.60
2019-03-08T21:25:25.375Z,94.50
2019-03-08T21:27:53.195Z,94.30
2019-03-08T21:30:20.777Z,94.40
2019-03-08T21:32:48.256Z,94.40
2019-03-08T21:35:16.388Z,94.30
2019-03-08T21:37:44.788Z,94.30
2019-03-08T21:40:12.822Z,94.30
2019-03-08T21:42:40.760Z,94.20
2019-03-08T21:45:09.705Z,94.20
2019-03-08T21:47:37.886Z,94.10
2019-03-08T21:50:07.287Z,94.10
2019-03-08T21:52:34.817Z,94.00
2019-03-08T21:55:02.983Z,93.90
2019-03-08T21:57:31.358Z,93.90
2019-03-08T21:59:59.697Z,93.80
2019-03-08T22:02:28.587Z,93.70
2019-03-08T22:04:58.983Z,93.50
2019-03-08T22:07:27.779Z,93.40
2019-03-08T22:10:04.065Z,93.40
2019-03-08T22:12:31.867Z,93.40
2019-03-08T22:15:00.341Z,93.40
2019-03-08T22:17:28.713Z,93.50
2019-03-08T22:19:56.392Z,93.60
2019-03-08T22:22:24.409Z,93.70
2019-03-08T22:24:52.078Z,93.80
2019-03-08T22:27:19.766Z,93.80
2019-03-08T22:29:47.468Z,93.80
2019-03-08T22:32:15.187Z,93.80
2019-03-08T22:34:42.990Z,93.60
2019-03-08T22:37:11.188Z,93.70
2019-03-08T22:39:38.663Z,93.40
2019-03-08T22:42:06.123Z,93.00
2019-03-08T22:44:33.662Z,92.90
2019-03-08T22:47:01.694Z,93.00
2019-03-08T22:49:29.609Z,93.00
2019-03-08T22:51:57.079Z,93.00
2019-03-08T22:54:24.519Z,93.00
2019-03-08T22:56:52.656Z,93.00
2019-03-08T22:59:20.322Z,93.00
2019-03-08T23:01:50.342Z,93.10
2019-03-08T23:04:18.540Z,93.20
2019-03-08T23:06:46.223Z,93.20
2019-03-08T23:09:16.288Z,93.40
2019-03-08T23:11:44.255Z,93.50
2019-03-08T23:14:12.069Z,93.60
2019-03-08T23:16:39.496Z,93.60
2019-03-08T23:19:07.101Z,93.70
2019-03-08T23:21:34.429Z,93.70
2019-03-08T23:24:02.642Z,93.70
2019-03-08T23:26:39.082Z,93.80
2019-03-08T23:29:11.234Z,93.80
2019-03-08T23:31:51.511Z,93.70
2019-03-08T23:34:20.418Z,93.70
2019-03-08T23:36:48.110Z,93.70
2019-03-08T23:39:16.432Z,94.10
2019-03-08T23:41:44.189Z,93.80
2019-03-08T23:44:12.467Z,93.70
2019-03-08T23:46:39.826Z,93.70
2019-03-08T23:49:07.283Z,93.70
2019-03-08T23:51:35.560Z,93.70
2019-03-08T23:54:03.841Z,94.00
2019-03-08T23:56:31.743Z,93.70
2019-03-08T23:58:59.573Z,93.60
